Time;durP1;ratioP1;P1;durP2;ratioP2;P2;SDS_P1;SDS_P2;PMS_P1;PMS_P2;Temp;Humidity;BMP_temperature;BMP_pressure;BME280_temperature;BME280_humidity;BME280_pressure;Samples;Min_cycle;Max_cycle;Signal;HPM_P1;HPM_P2
2023/03/27 00:00:43;;;;;;;5.10;0.68;;;3.40;99.90;;;;;;4911251;29;20051;-83
2023/03/27 00:03:32;;;;;;;5.68;0.70;;;3.50;99.90;;;;;;4931664;28;20051;-82
2023/03/27 00:06:03;;;;;;;10.20;0.85;;;3.50;99.90;;;;;;4926589;29;20052;-82
2023/03/27 00:08:31;;;;;;;7.35;1.35;;;3.50;99.90;;;;;;4886879;29;20403;-82
2023/03/27 00:11:04;;;;;;;8.43;0.70;;;3.50;99.90;;;;;;4918336;29;20059;-82
2023/03/27 00:13:30;;;;;;;5.45;0.50;;;;;;;;;;4934212;29;20051;-82
2023/03/27 00:16:04;;;;;;;6.28;1.13;;;3.50;99.90;;;;;;4935135;29;20047;-82
2023/03/27 00:18:30;;;;;;;11.30;0.75;;;4.10;99.90;;;;;;4934867;29;20410;-82
2023/03/27 00:21:05;;;;;;;5.97;0.73;;;5.20;99.90;;;;;;4911223;28;20610;-82
2023/03/27 00:23:33;;;;;;;4.18;0.50;;;3.40;99.90;;;;;;4894601;28;20079;-82
2023/03/27 00:26:20;;;;;;;4.50;0.35;;;3.40;99.90;;;;;;4927512;29;20607;-83
2023/03/27 00:28:50;;;;;;;4.78;0.50;;;3.40;99.90;;;;;;4925490;29;20542;-82
2023/03/27 00:31:18;;;;;;;4.68;0.77;;;5.10;99.90;;;;;;4925316;29;20106;-82
2023/03/27 00:33:44;;;;;;;3.53;0.50;;;6.30;99.90;;;;;;4926711;28;20051;-83
2023/03/27 00:36:10;;;;;;;4.97;0.77;;;6.50;99.90;;;;;;4913921;29;20507;-82
2023/03/27 00:38:38;;;;;;;9.43;0.82;;;3.60;99.90;;;;;;4931858;29;20047;-83
2023/03/27 00:41:04;;;;;;;4.28;0.45;;;5.50;99.90;;;;;;4928710;29;20078;-82
2023/03/27 00:43:32;;;;;;;6.05;0.70;;;3.40;99.90;;;;;;4914589;29;20422;-82
2023/03/27 00:46:21;;;;;;;7.75;1.15;;;3.20;99.90;;;;;;4929049;29;20058;-82
2023/03/27 00:48:50;;;;;;;6.53;0.73;;;3.40;99.90;;;;;;4914607;29;20048;-82
2023/03/27 00:51:17;;;;;;;11.68;0.70;;;3.50;99.90;;;;;;4948736;28;20107;-82
2023/03/27 00:53:45;;;;;;;7.80;1.13;;;6.00;99.90;;;;;;4947881;28;20044;-82
2023/03/27 00:56:12;;;;;;;6.57;0.70;;;2.70;99.90;;;;;;4914995;29;20047;-82
2023/03/27 00:58:52;;;;;;;8.77;1.10;;;4.90;99.90;;;;;;4914986;29;20464;-82
2023/03/27 01:01:27;;;;;;;10.95;1.00;;;3.30;99.90;;;;;;4945275;28;20507;-82
2023/03/27 01:03:57;;;;;;;6.20;1.55;;;5.20;99.90;;;;;;4909138;29;20400;-82
2023/03/27 01:06:28;;;;;;;5.82;1.00;;;6.70;99.90;;;;;;4923847;29;20050;-82
2023/03/27 01:09:12;;;;;;;6.65;1.48;;;1.50;99.90;;;;;;4925321;29;20055;-82
2023/03/27 01:12:00;;;;;;;5.93;0.82;;;3.30;99.90;;;;;;4927978;29;20065;-82
2023/03/27 01:14:49;;;;;;;5.53;0.60;;;3.30;99.90;;;;;;4915458;29;20047;-82
2023/03/27 01:17:29;;;;;;;6.60;0.60;;;5.00;99.90;;;;;;4928639;29;20055;-82
2023/03/27 01:20:46;;;;;;;6.75;0.65;;;3.10;99.90;;;;;;4919798;29;20043;-82
2023/03/27 01:23:18;;;;;;;7.20;0.75;;;3.20;99.90;;;;;;4928121;29;20083;-82
2023/03/27 01:26:29;;;;;;;8.88;1.33;;;3.20;99.90;;;;;;4931162;28;20170;-82
2023/03/27 01:29:24;;;;;;;5.20;0.90;;;3.20;99.90;;;;;;4915163;29;20043;-83
2023/03/27 01:32:20;;;;;;;9.50;0.80;;;3.10;99.90;;;;;;4913230;28;20051;-84
2023/03/27 01:35:03;;;;;;;8.23;1.38;;;3.20;99.90;;;;;;4910602;29;20083;-84
2023/03/27 01:37:55;;;;;;;8.93;0.98;;;3.20;99.90;;;;;;4928274;29;20125;-84
2023/03/27 01:40:45;;;;;;;6.05;0.80;;;3.40;99.90;;;;;;4936322;29;20130;-84
2023/03/27 01:44:04;;;;;;;8.95;0.80;;;3.10;99.90;;;;;;4908608;29;20098;-85
2023/03/27 01:47:14;;;;;;;8.45;0.98;;;3.10;99.90;;;;;;4905307;29;20078;-84
2023/03/27 01:50:01;;;;;;;3.75;0.70;;;3.10;99.90;;;;;;4917264;29;20055;-84
2023/03/27 01:52:36;;;;;;;7.32;0.77;;;5.40;99.90;;;;;;4913050;29;20169;-84
2023/03/27 01:55:10;;;;;;;5.53;0.50;;;2.90;99.90;;;;;;4915973;29;20503;-84
2023/03/27 01:57:40;;;;;;;6.35;1.15;;;5.40;99.90;;;;;;4915066;29;20511;-84
2023/03/27 02:00:20;;;;;;;6.00;1.23;;;3.70;99.90;;;;;;4925479;29;20082;-84
2023/03/27 02:02:55;;;;;;;4.30;0.60;;;3.00;99.90;;;;;;4944403;28;20827;-84
2023/03/27 02:05:35;;;;;;;9.57;1.55;;;2.90;99.90;;;;;;4931118;29;20063;-84
2023/03/27 02:08:36;;;;;;;4.20;0.88;;;2.70;99.90;;;;;;4914789;29;20051;-84
2023/03/27 02:11:15;;;;;;;3.50;0.77;;;2.80;99.90;;;;;;4934744;28;20126;-84
2023/03/27 02:14:16;;;;;;;4.65;0.70;;;2.80;99.90;;;;;;4916518;29;20051;-84
2023/03/27 02:16:51;;;;;;;8.07;0.85;;;4.90;99.90;;;;;;4924891;29;20059;-82
2023/03/27 02:19:34;;;;;;;9.60;0.90;;;4.50;99.90;;;;;;4919690;29;20051;-82
2023/03/27 02:22:04;;;;;;;7.22;1.10;;;2.70;99.90;;;;;;4900984;28;20047;-84
2023/03/27 02:24:37;;;;;;;10.07;0.70;;;2.90;99.90;;;;;;4935104;29;20059;-82
2023/03/27 02:27:22;;;;;;;5.05;1.08;;;2.70;99.90;;;;;;4916004;29;20055;-81
2023/03/27 02:30:07;;;;;;;3.13;0.68;;;2.90;99.90;;;;;;4918918;29;20047;-82
2023/03/27 02:32:39;;;;;;;;;;;2.80;99.90;;;;;;4912001;29;20499;-82
2023/03/27 02:35:37;;;;;;;6.68;0.63;;;2.80;99.90;;;;;;4926044;29;19922;-81
2023/03/27 02:38:34;;;;;;;6.93;0.80;;;2.80;99.90;;;;;;4931047;28;20054;-82
2023/03/27 02:41:47;;;;;;;4.15;1.05;;;2.90;99.90;;;;;;4927894;28;20142;-82
2023/03/27 02:44:36;;;;;;;7.75;1.23;;;5.80;99.90;;;;;;4943495;28;20255;-81
2023/03/27 02:47:15;;;;;;;9.68;1.20;;;2.90;99.90;;;;;;4946302;29;20090;-81
2023/03/27 02:49:52;;;;;;;6.20;1.25;;;4.70;99.90;;;;;;4928228;29;20082;-81
2023/03/27 02:52:40;;;;;;;5.05;0.85;;;5.80;99.90;;;;;;4911528;29;20051;-81
2023/03/27 02:55:32;;;;;;;10.77;1.92;;;0.60;99.90;;;;;;4928500;29;20058;-81
2023/03/27 02:58:16;;;;;;;5.97;1.38;;;2.80;99.90;;;;;;4929058;29;20077;-81
2023/03/27 03:01:07;;;;;;;8.00;1.52;;;2.90;99.90;;;;;;4931929;29;20117;-81
2023/03/27 03:03:57;;;;;;;11.60;1.63;;;3.60;99.90;;;;;;4923190;28;20388;-84
2023/03/27 03:06:31;;;;;;;4.25;1.23;;;2.80;99.90;;;;;;4944951;28;20055;-84
2023/03/27 03:09:00;;;;;;;10.75;1.55;;;3.40;99.90;;;;;;4928829;29;20115;-84
2023/03/27 03:11:31;;;;;;;10.50;1.95;;;2.80;99.90;;;;;;4923538;29;20040;-84
2023/03/27 03:14:24;;;;;;;14.27;1.73;;;2.80;99.90;;;;;;4935701;29;20085;-83
2023/03/27 03:16:51;;;;;;;8.75;1.58;;;;;;;;;;4942189;29;20039;-84
2023/03/27 03:19:31;;;;;;;10.18;1.00;;;2.70;99.90;;;;;;4950959;29;20043;-84
2023/03/27 03:22:02;;;;;;;8.18;0.90;;;2.30;99.90;;;;;;4902181;29;20615;-84
2023/03/27 03:24:34;;;;;;;17.48;2.13;;;;;;;;;;4932860;29;20059;-83
2023/03/27 03:27:04;;;;;;;12.13;1.60;;;2.70;99.90;;;;;;4931989;29;20632;-84
2023/03/27 03:29:34;;;;;;;19.50;2.97;;;2.70;99.90;;;;;;4932936;29;20055;-84
2023/03/27 03:32:11;;;;;;;7.78;2.13;;;4.30;99.90;;;;;;4926426;28;20373;-83
2023/03/27 03:34:45;;;;;;;11.88;1.02;;;5.30;99.90;;;;;;4910443;28;20063;-83
2023/03/27 03:37:12;;;;;;;6.65;1.20;;;2.70;99.90;;;;;;4924863;29;20095;-84
2023/03/27 03:39:40;;;;;;;5.65;1.02;;;2.50;99.90;;;;;;4924771;29;20117;-84
2023/03/27 03:42:06;;;;;;;5.45;0.68;;;2.50;99.90;;;;;;4911612;28;20527;-84
2023/03/27 03:44:33;;;;;;;12.82;1.45;;;2.40;99.90;;;;;;4916638;29;20074;-84
2023/03/27 03:46:59;;;;;;;8.43;1.33;;;2.80;99.90;;;;;;4943417;28;20331;-84
2023/03/27 03:49:25;;;;;;;15.38;1.48;;;4.90;99.90;;;;;;4943389;28;20061;-84
2023/03/27 03:51:50;;;;;;;7.28;1.00;;;5.30;99.90;;;;;;4926027;29;20210;-84
2023/03/27 03:54:16;;;;;;;9.52;1.73;;;4.20;99.90;;;;;;4943069;28;20039;-84
2023/03/27 03:56:42;;;;;;;15.80;1.85;;;2.30;99.90;;;;;;4943454;28;20749;-83
2023/03/27 03:59:08;;;;;;;9.65;1.25;;;6.10;99.90;;;;;;4909728;29;20063;-84
2023/03/27 04:01:34;;;;;;;8.32;1.10;;;;;;;;;;4950560;29;20404;-84
2023/03/27 04:04:01;;;;;;;18.90;3.45;;;2.50;99.90;;;;;;4946645;28;20518;-83
2023/03/27 04:06:29;;;;;;;13.63;2.70;;;2.20;99.90;;;;;;4916925;29;20052;-84
2023/03/27 04:08:55;;;;;;;5.22;1.30;;;2.50;99.90;;;;;;4932549;29;20039;-81
2023/03/27 04:11:21;;;;;;;7.43;1.17;;;1.50;99.90;;;;;;4928171;28;20047;-83
2023/03/27 04:13:48;;;;;;;7.75;1.05;;;;;;;;;;4910866;29;20058;-83
2023/03/27 04:16:14;;;;;;;2.78;0.98;;;2.40;99.90;;;;;;4913792;29;20051;-83
2023/03/27 04:18:40;;;;;;;7.35;1.35;;;2.40;99.90;;;;;;4937906;29;20175;-84
2023/03/27 04:21:13;;;;;;;6.78;1.02;;;2.30;99.90;;;;;;4930082;29;20047;-84
2023/03/27 04:23:44;;;;;;;8.75;1.27;;;2.50;99.90;;;;;;4949969;29;20055;-84
2023/03/27 04:26:11;;;;;;;10.75;2.03;;;2.40;99.90;;;;;;4898940;29;20141;-84
2023/03/27 04:28:38;;;;;;;10.50;1.77;;;2.50;99.90;;;;;;4916446;29;20062;-84
2023/03/27 04:31:09;;;;;;;10.20;0.98;;;2.00;99.90;;;;;;4916307;29;20066;-84
2023/03/27 04:33:45;;;;;;;6.45;1.00;;;2.50;99.90;;;;;;4929134;28;20047;-84
2023/03/27 04:36:13;;;;;;;5.75;1.00;;;2.50;99.90;;;;;;4899497;29;20138;-84
2023/03/27 04:38:54;;;;;;;7.40;0.98;;;2.10;99.90;;;;;;4931846;29;20539;-82
2023/03/27 04:41:21;;;;;;;5.43;1.27;;;2.30;99.90;;;;;;4899388;29;20059;-84
2023/03/27 04:43:46;;;;;;;14.57;1.55;;;2.00;99.90;;;;;;4915556;29;20693;-84
2023/03/27 04:46:28;;;;;;;4.00;1.10;;;2.20;99.90;;;;;;4944272;29;20293;-82
2023/03/27 04:48:55;;;;;;;11.25;1.38;;;2.20;99.90;;;;;;4941687;29;20066;-81
2023/03/27 04:51:25;;;;;;;5.78;0.85;;;1.90;99.90;;;;;;4921620;29;20082;-81
2023/03/27 04:53:51;;;;;;;4.22;1.00;;;4.70;99.90;;;;;;4927262;28;20098;-83
2023/03/27 04:56:16;;;;;;;4.57;1.30;;;5.50;99.90;;;;;;4891517;29;20087;-82
2023/03/27 04:58:45;;;;;;;6.78;2.50;;;4.20;99.90;;;;;;4924019;28;20055;-82
2023/03/27 05:01:19;;;;;;;8.05;0.57;;;0.50;99.90;;;;;;4924615;29;20051;-82
2023/03/27 05:04:06;;;;;;;10.02;1.35;;;2.30;99.90;;;;;;4912182;29;20719;-82
2023/03/27 05:06:52;;;;;;;6.45;0.70;;;4.70;99.90;;;;;;4924183;29;20082;-82
2023/03/27 05:09:20;;;;;;;7.22;0.85;;;4.20;99.90;;;;;;4906673;28;20114;-82
2023/03/27 05:11:50;;;;;;;6.40;0.50;;;2.40;99.90;;;;;;4912374;29;20063;-83
2023/03/27 05:14:22;;;;;;;5.15;0.68;;;5.30;99.90;;;;;;4913042;28;20122;-80
2023/03/27 05:16:51;;;;;;;2.47;0.40;;;2.60;99.90;;;;;;4953121;28;20055;-81
2023/03/27 05:19:20;;;;;;;5.38;0.50;;;2.50;99.90;;;;;;4929126;28;20129;-79
2023/03/27 05:21:46;;;;;;;7.13;0.40;;;2.30;99.90;;;;;;4939555;28;20035;-80
2023/03/27 05:24:14;;;;;;;3.88;0.32;;;5.70;99.90;;;;;;4917769;28;20055;-82
2023/03/27 05:26:42;;;;;;;3.20;0.47;;;5.40;99.90;;;;;;4933649;29;20107;-82
2023/03/27 05:29:08;;;;;;;2.88;0.47;;;2.80;99.90;;;;;;4931714;29;20535;-82
2023/03/27 05:31:37;;;;;;;2.05;0.32;;;5.90;99.90;;;;;;4933327;29;20090;-80
2023/03/27 05:34:03;;;;;;;2.95;0.65;;;4.10;99.90;;;;;;4948300;28;20047;-80
2023/03/27 05:36:28;;;;;;;2.55;0.52;;;5.50;99.90;;;;;;4916780;29;20138;-79
2023/03/27 05:38:56;;;;;;;8.15;1.17;;;2.60;99.90;;;;;;4924522;29;20083;-81
2023/03/27 05:41:23;;;;;;;9.05;0.40;;;2.60;99.90;;;;;;4914679;29;20055;-82
2023/03/27 05:43:50;;;;;;;4.22;0.90;;;2.50;99.90;;;;;;4932643;29;20098;-80
2023/03/27 05:46:16;;;;;;;6.93;0.60;;;5.60;99.90;;;;;;4937521;29;20106;-80
2023/03/27 05:48:42;;;;;;;6.32;0.60;;;1.50;99.90;;;;;;4916527;29;20051;-80
2023/03/27 05:51:12;;;;;;;3.92;0.30;;;2.30;99.90;;;;;;4948740;29;20106;-80
2023/03/27 05:53:41;;;;;;;7.10;0.50;;;2.30;99.90;;;;;;4933239;29;20059;-81
2023/03/27 05:56:08;;;;;;;6.63;0.70;;;3.70;99.90;;;;;;4916579;29;20055;-80
2023/03/27 05:58:37;;;;;;;2.85;0.88;;;1.70;99.90;;;;;;4932757;29;20087;-81
2023/03/27 06:01:03;;;;;;;6.95;0.50;;;2.40;99.90;;;;;;4900396;29;20051;-80
2023/03/27 06:03:29;;;;;;;6.00;0.70;;;2.50;99.90;;;;;;4933235;29;20055;-80
2023/03/27 06:05:58;;;;;;;5.60;0.55;;;5.60;99.90;;;;;;4907725;29;20098;-81
2023/03/27 06:08:25;;;;;;;9.43;1.73;;;2.50;99.90;;;;;;4949005;29;20134;-80
2023/03/27 06:10:56;;;;;;;5.47;1.50;;;5.70;99.90;;;;;;4916373;29;20043;-81
2023/03/27 06:13:22;;;;;;;5.75;1.13;;;2.50;99.90;;;;;;4932150;29;20055;-79
2023/03/27 06:15:53;;;;;;;4.53;0.65;;;4.80;99.90;;;;;;4928698;29;20095;-81
2023/03/27 06:18:19;;;;;;;6.80;0.82;;;2.40;99.90;;;;;;4949513;29;20055;-81
2023/03/27 06:21:26;;;;;;;2.38;0.50;;;2.30;99.90;;;;;;4932495;28;20055;-81
2023/03/27 06:23:52;;;;;;;6.93;0.88;;;5.30;99.90;;;;;;4932252;29;20578;-81
2023/03/27 06:26:18;;;;;;;10.18;1.30;;;2.30;99.90;;;;;;4931787;29;20094;-82
2023/03/27 06:28:44;;;;;;;4.68;1.00;;;2.20;99.90;;;;;;4932869;29;20566;-79
2023/03/27 06:31:10;;;;;;;6.43;3.00;;;2.20;99.90;;;;;;4931504;29;20123;-79
2023/03/27 06:33:38;;;;;;;6.50;1.10;;;2.10;99.90;;;;;;4931557;29;20063;-79
2023/03/27 06:36:05;;;;;;;12.43;0.93;;;2.20;99.90;;;;;;4916572;29;20051;-79
2023/03/27 06:38:31;;;;;;;5.00;1.02;;;2.40;99.90;;;;;;4933124;29;20055;-79
2023/03/27 06:40:58;;;;;;;3.20;0.60;;;4.70;99.90;;;;;;4929615;29;20055;-79
2023/03/27 06:43:24;;;;;;;6.38;0.95;;;2.40;99.90;;;;;;4916956;29;20125;-82
2023/03/27 06:45:50;;;;;;;7.55;0.80;;;2.60;99.90;;;;;;4916960;29;20554;-82
2023/03/27 06:48:18;;;;;;;5.10;0.55;;;2.40;99.90;;;;;;4931610;29;20040;-81
2023/03/27 06:50:46;;;;;;;7.63;0.95;;;5.10;99.90;;;;;;4915751;29;20137;-82
2023/03/27 06:53:15;;;;;;;7.03;0.80;;;2.30;99.90;;;;;;4916518;29;20050;-81
2023/03/27 06:55:42;;;;;;;10.93;1.20;;;5.80;99.90;;;;;;4932281;29;20133;-82
2023/03/27 06:58:12;;;;;;;11.25;1.33;;;2.70;99.90;;;;;;4949696;28;20416;-81
2023/03/27 07:00:39;;;;;;;6.97;0.60;;;2.60;99.90;;;;;;4934903;29;20066;-81
2023/03/27 07:03:08;;;;;;;9.65;0.63;;;2.70;99.90;;;;;;4919565;29;20043;-81
2023/03/27 07:05:39;;;;;;;7.32;0.73;;;2.00;99.90;;;;;;4935173;29;20051;-81
2023/03/27 07:08:09;;;;;;;7.93;0.93;;;3.10;99.90;;;;;;4900043;29;20102;-81
2023/03/27 07:10:38;;;;;;;12.63;1.23;;;3.00;99.90;;;;;;4949961;29;20047;-82
2023/03/27 07:13:06;;;;;;;6.82;0.95;;;3.10;99.90;;;;;;4951077;29;20535;-80
2023/03/27 07:15:32;;;;;;;9.70;0.82;;;3.20;99.90;;;;;;4935318;29;20111;-80
2023/03/27 07:17:59;;;;;;;10.50;0.82;;;3.40;99.90;;;;;;4927987;29;20051;-80
2023/03/27 07:20:28;;;;;;;9.35;1.13;;;6.20;99.90;;;;;;4934306;29;20051;-80
2023/03/27 07:22:56;;;;;;;9.52;1.00;;;6.30;99.90;;;;;;4918406;29;20050;-80
2023/03/27 07:25:23;;;;;;;11.23;1.00;;;3.40;99.90;;;;;;4919349;29;20070;-80
2023/03/27 07:27:49;;;;;;;6.55;1.23;;;5.60;99.90;;;;;;4935872;29;20084;-80
2023/03/27 07:30:16;;;;;;;13.98;2.83;;;6.70;99.90;;;;;;4950569;29;20063;-80
2023/03/27 07:32:43;;;;;;;14.23;2.67;;;3.50;99.90;;;;;;4950356;29;20089;-80
2023/03/27 07:35:09;;;;;;;11.50;1.80;;;7.00;99.90;;;;;;4926321;29;20130;-80
2023/03/27 07:37:59;;;;;;;8.95;1.45;;;3.70;99.90;;;;;;4916768;29;20637;-81
2023/03/27 07:40:26;;;;;;;4.65;0.57;;;3.90;99.90;;;;;;4901618;29;20051;-82
2023/03/27 07:43:06;;;;;;;5.13;0.68;;;5.10;99.90;;;;;;4576763;29;10000157;-82
2023/03/27 07:45:33;;;;;;;4.93;0.85;;;3.60;99.90;;;;;;4930814;29;20055;-83
2023/03/27 07:48:10;;;;;;;6.38;0.80;;;6.30;99.90;;;;;;4940571;29;20055;-83
2023/03/27 07:50:39;;;;;;;2.63;0.55;;;3.20;99.90;;;;;;4932103;29;20106;-83
2023/03/27 07:53:05;;;;;;;5.53;0.98;;;3.10;99.90;;;;;;4915132;29;20055;-83
2023/03/27 07:55:36;;;;;;;3.35;0.40;;;5.40;99.90;;;;;;4947543;29;20049;-82
2023/03/27 07:58:05;;;;;;;3.72;1.65;;;2.90;99.90;;;;;;4916804;29;20051;-83
2023/03/27 08:00:34;;;;;;;6.95;1.02;;;2.20;99.90;;;;;;4917370;29;20511;-83
2023/03/27 08:03:08;;;;;;;6.68;1.30;;;5.80;99.90;;;;;;4925880;29;20098;-81
2023/03/27 08:05:34;;;;;;;3.65;0.75;;;6.10;99.90;;;;;;4917179;29;20047;-82
2023/03/27 08:08:01;;;;;;;4.68;0.80;;;3.30;99.90;;;;;;4902280;29;20043;-81
2023/03/27 08:10:31;;;;;;;8.95;1.00;;;2.80;99.90;;;;;;4934124;29;20426;-82
2023/03/27 08:13:00;;;;;;;9.43;1.10;;;5.50;99.90;;;;;;4917411;29;20139;-82
2023/03/27 08:15:26;;;;;;;7.65;1.00;;;4.90;99.90;;;;;;4902619;29;20051;-82
2023/03/27 08:17:58;;;;;;;5.88;1.00;;;6.40;99.90;;;;;;4951188;29;20079;-81
2023/03/27 08:20:24;;;;;;;6.82;0.50;;;5.30;99.90;;;;;;4900299;29;20130;-81
2023/03/27 08:22:53;;;;;;;3.70;0.88;;;6.30;99.90;;;;;;4934562;29;20047;-81
2023/03/27 08:25:22;;;;;;;7.65;1.13;;;5.40;99.90;;;;;;4932763;29;20047;-83
2023/03/27 08:27:51;;;;;;;11.93;1.50;;;0.70;99.90;;;;;;4935611;29;20150;-81
2023/03/27 08:30:19;;;;;;;8.05;0.93;;;6.60;99.90;;;;;;4929009;29;20086;-81
2023/03/27 08:32:46;;;;;;;4.15;0.70;;;3.30;99.90;;;;;;4885293;29;20062;-82
2023/03/27 08:35:12;;;;;;;13.32;1.13;;;3.30;99.90;;;;;;4917115;29;20086;-82
2023/03/27 08:37:38;;;;;;;10.85;1.13;;;3.50;99.90;;;;;;4932619;29;20055;-80
2023/03/27 08:40:12;;;;;;;7.60;1.45;;;3.50;99.90;;;;;;4938660;29;20063;-81
2023/03/27 08:42:43;;;;;;;6.45;0.73;;;3.80;99.90;;;;;;4896821;29;20062;-82
2023/03/27 08:45:30;;;;;;;10.55;2.08;;;7.00;99.90;;;;;;4887125;29;20050;-82
2023/03/27 08:48:04;;;;;;;7.43;0.90;;;3.90;99.90;;;;;;4919580;29;20511;-82
2023/03/27 08:50:43;;;;;;;11.60;2.43;;;4.80;99.90;;;;;;4918878;29;20396;-82
2023/03/27 08:53:21;;;;;;;7.95;1.27;;;4.10;99.90;;;;;;4926555;29;20476;-82
2023/03/27 08:55:49;;;;;;;9.25;1.70;;;4.20;99.90;;;;;;4935508;29;20141;-81
2023/03/27 08:58:35;;;;;;;3.70;0.70;;;4.20;99.90;;;;;;4950861;29;20054;-81
2023/03/27 09:01:18;;;;;;;5.60;0.68;;;7.40;99.90;;;;;;4922719;29;20043;-81
2023/03/27 09:04:16;;;;;;;4.70;0.30;;;4.20;99.90;;;;;;4931954;29;20576;-80
2023/03/27 09:06:59;;;;;;;5.65;0.68;;;4.20;99.90;;;;;;4930327;29;20089;-80
2023/03/27 09:09:41;;;;;;;5.78;0.40;;;4.30;99.90;;;;;;4912645;29;20682;-80
2023/03/27 09:12:25;;;;;;;6.85;0.73;;;4.30;99.90;;;;;;4905907;29;20059;-80
2023/03/27 09:15:03;;;;;;;2.95;0.90;;;6.50;99.90;;;;;;4898469;29;20056;-82
2023/03/27 09:18:06;;;;;;;5.72;1.15;;;4.40;99.90;;;;;;4914408;29;20074;-81
2023/03/27 09:20:50;;;;;;;4.72;0.30;;;6.90;99.90;;;;;;4900138;29;20531;-82
2023/03/27 09:23:37;;;;;;;7.18;0.63;;;4.60;99.90;;;;;;4931464;29;20062;-82
2023/03/27 09:26:13;;;;;;;9.35;0.57;;;4.80;99.90;;;;;;4889552;29;20083;-81
2023/03/27 09:28:50;;;;;;;5.50;1.00;;;4.80;99.90;;;;;;4897504;29;20052;-82
2023/03/27 09:31:16;;;;;;;7.10;0.40;;;5.50;99.90;;;;;;4898514;29;20555;-83
2023/03/27 09:33:43;;;;;;;8.98;0.38;;;7.40;99.90;;;;;;4913832;29;20055;-82
2023/03/27 09:36:12;;;;;;;4.22;0.82;;;8.00;99.90;;;;;;4931182;29;20115;-82
2023/03/27 09:38:49;;;;;;;4.72;0.63;;;5.90;99.90;;;;;;4914275;29;20138;-84
2023/03/27 09:41:44;;;;;;;5.60;0.98;;;7.60;99.90;;;;;;4882548;29;20071;-83
2023/03/27 09:44:31;;;;;;;1.80;0.35;;;5.00;99.90;;;;;;4898204;29;20054;-81
2023/03/27 09:47:04;;;;;;;3.35;0.57;;;5.10;99.90;;;;;;4880938;29;20567;-82
2023/03/27 09:49:43;;;;;;;4.32;0.45;;;5.30;99.90;;;;;;4911518;29;20056;-83
2023/03/27 09:52:34;;;;;;;4.53;0.70;;;8.40;99.90;;;;;;4913778;29;20051;-82
2023/03/27 09:55:01;;;;;;;7.00;0.77;;;7.30;99.90;;;;;;4928237;29;20051;-82
2023/03/27 09:57:42;;;;;;;6.97;0.50;;;8.80;99.90;;;;;;4897147;29;20471;-82
2023/03/27 10:00:35;;;;;;;7.78;1.13;;;5.70;99.90;;;;;;4879462;29;20052;-83
2023/03/27 10:03:04;;;;;;;9.02;1.02;;;8.00;99.90;;;;;;4928964;29;20051;-84
2023/03/27 10:05:38;;;;;;;9.93;0.68;;;5.60;99.90;;;;;;4882666;29;20055;-83
2023/03/27 10:08:23;;;;;;;6.38;0.70;;;8.20;99.90;;;;;;4931738;29;20126;-84
2023/03/27 10:11:10;;;;;;;7.05;0.98;;;8.10;99.90;;;;;;4931863;29;20146;-86
2023/03/27 10:13:42;;;;;;;3.42;0.40;;;5.50;99.90;;;;;;4903153;29;20134;-83
2023/03/27 10:16:09;;;;;;;3.50;0.35;;;5.60;99.90;;;;;;4894329;29;20055;-84
2023/03/27 10:18:46;;;;;;;5.50;0.95;;;5.60;99.90;;;;;;4925266;29;20062;-83
2023/03/27 10:21:48;;;;;;;7.03;0.90;;;5.60;99.90;;;;;;4926084;29;20043;-84
2023/03/27 10:24:29;;;;;;;3.17;0.30;;;5.60;99.90;;;;;;4925103;29;20058;-83
2023/03/27 10:27:03;;;;;;;5.72;1.65;;;8.70;99.90;;;;;;4933313;29;20499;-84
2023/03/27 10:29:38;;;;;;;4.57;0.30;;;5.70;99.90;;;;;;4917686;29;20566;-83
2023/03/27 10:32:07;;;;;;;3.63;0.80;;;5.50;99.90;;;;;;4877155;28;20051;-81
2023/03/27 10:34:54;;;;;;;7.18;1.35;;;9.20;99.90;;;;;;4920177;29;20043;-82
2023/03/27 10:37:29;;;;;;;3.95;0.50;;;5.90;99.90;;;;;;4947204;29;20162;-82
2023/03/27 10:40:00;;;;;;;2.03;0.30;;;6.20;99.90;;;;;;4920132;29;20145;-82
2023/03/27 10:42:38;;;;;;;4.45;0.57;;;6.00;99.90;;;;;;4954029;29;20061;-82
2023/03/27 10:45:29;;;;;;;7.15;0.63;;;5.90;99.90;;;;;;4935081;29;20050;-82
2023/03/27 10:47:58;;;;;;;5.63;0.82;;;6.10;99.90;;;;;;4920479;29;20051;-82
2023/03/27 10:50:37;;;;;;;5.55;0.90;;;5.90;99.90;;;;;;4919850;29;20066;-82
2023/03/27 10:53:31;;;;;;;2.85;0.35;;;5.70;99.90;;;;;;4912021;29;20047;-82
2023/03/27 10:56:26;;;;;;;4.38;0.50;;;6.20;99.90;;;;;;4920743;29;20142;-82
2023/03/27 10:59:26;;;;;;;4.13;0.38;;;7.90;99.90;;;;;;4935301;29;20043;-82
2023/03/27 11:02:09;;;;;;;6.97;1.13;;;6.30;99.90;;;;;;4953289;29;20055;-81
2023/03/27 11:04:48;;;;;;;5.22;0.73;;;7.80;99.90;;;;;;4920277;29;20446;-82
2023/03/27 11:07:24;;;;;;;3.53;0.50;;;8.70;99.90;;;;;;4928610;28;20059;-82
2023/03/27 11:10:23;;;;;;;6.13;0.68;;;6.60;99.90;;;;;;4935915;29;20091;-81
2023/03/27 11:12:58;;;;;;;;;;;6.70;99.90;;;;;;4936022;29;20055;-81
2023/03/27 11:15:37;;;;;;;11.23;2.05;;;6.80;99.90;;;;;;4900895;29;19933;-81
2023/03/27 11:18:17;;;;;;;3.80;0.50;;;6.80;99.90;;;;;;4911507;29;20063;-82
2023/03/27 11:21:01;;;;;;;8.77;0.60;;;6.90;99.90;;;;;;4935107;29;20106;-81
2023/03/27 11:23:49;;;;;;;7.03;0.80;;;6.40;99.90;;;;;;4906542;29;20057;-82
2023/03/27 11:26:17;;;;;;;9.18;0.77;;;5.90;99.90;;;;;;4928381;29;20047;-82
2023/03/27 11:29:03;;;;;;;4.63;1.17;;;7.50;99.90;;;;;;4935578;29;20048;-81
2023/03/27 11:31:51;;;;;;;6.55;0.57;;;5.70;99.90;;;;;;4935810;29;20055;-81
2023/03/27 11:34:20;;;;;;;;;;;5.60;99.90;;;;;;4912783;29;20487;-81
2023/03/27 11:37:27;;;;;;;5.30;0.30;;;7.80;99.90;;;;;;4919869;29;19922;-82
2023/03/27 11:40:06;;;;;;;5.63;0.30;;;5.40;99.90;;;;;;4934306;29;20051;-82
2023/03/27 11:42:46;;;;;;;6.25;0.68;;;8.90;99.90;;;;;;4935930;29;20463;-82
2023/03/27 11:45:46;;;;;;;1.05;0.20;;;5.60;99.90;;;;;;4902560;29;20553;-81
2023/03/27 11:48:47;;;;;;;4.63;0.50;;;5.80;99.90;;;;;;4927125;29;20407;-81
2023/03/27 11:51:28;;;;;;;6.15;0.30;;;8.90;99.90;;;;;;4914821;29;20515;-82
2023/03/27 11:54:28;;;;;;;9.20;0.93;;;6.30;99.90;;;;;;4919213;29;20047;-81
2023/03/27 11:57:22;;;;;;;6.10;0.88;;;6.60;99.90;;;;;;4951627;29;20048;-81
2023/03/27 11:59:49;;;;;;;5.35;1.05;;;;;;;;;;4934247;29;20051;-81
2023/03/27 12:02:53;;;;;;;6.57;1.10;;;7.10;99.90;;;;;;4933921;29;20043;-82
2023/03/27 12:05:45;;;;;;;2.95;0.38;;;7.10;99.90;;;;;;4927853;29;20134;-81
2023/03/27 12:08:42;;;;;;;4.22;0.50;;;7.20;99.90;;;;;;4927418;29;20055;-82
2023/03/27 12:11:17;;;;;;;2.92;0.60;;;7.20;99.90;;;;;;4943451;29;20051;-81
2023/03/27 12:14:11;;;;;;;7.63;0.80;;;7.40;99.90;;;;;;4895563;29;20487;-81
2023/03/27 12:17:19;;;;;;;5.28;0.85;;;7.50;99.90;;;;;;4934152;29;20047;-81
2023/03/27 12:20:00;;;;;;;5.20;0.77;;;7.50;99.90;;;;;;4931771;29;20082;-81
2023/03/27 12:22:57;;;;;;;5.13;0.63;;;7.60;99.90;;;;;;4933989;29;20051;-82
2023/03/27 12:26:09;;;;;;;6.05;0.57;;;7.60;99.90;;;;;;4930062;29;20067;-82
2023/03/27 12:28:47;;;;;;;11.77;0.88;;;7.70;99.90;;;;;;4930768;29;20324;-82
2023/03/27 12:31:44;;;;;;;5.60;0.80;;;8.60;99.90;;;;;;4917452;29;20070;-81
2023/03/27 12:34:36;;;;;;;12.23;1.23;;;7.70;99.90;;;;;;4910843;29;20134;-82
2023/03/27 12:37:04;;;;;;;8.93;1.65;;;7.60;99.90;;;;;;4917869;29;20055;-82
2023/03/27 12:39:53;;;;;;;3.70;0.70;;;9.60;99.90;;;;;;4950835;29;20206;-81
2023/03/27 12:42:47;;;;;;;4.75;0.70;;;10.40;99.90;;;;;;4897846;29;20059;-82
2023/03/27 12:45:23;;;;;;;1.65;0.20;;;7.00;99.90;;;;;;4910410;29;20051;-82
2023/03/27 12:48:08;;;;;;;1.77;0.20;;;6.90;99.90;;;;;;4934526;29;20047;-82
2023/03/27 12:50:43;;;;;;;3.65;0.38;;;8.40;99.90;;;;;;4932911;29;20062;-82
2023/03/27 12:53:32;;;;;;;6.30;0.43;;;7.00;99.90;;;;;;4917902;29;20047;-82
2023/03/27 12:56:16;;;;;;;4.95;0.68;;;9.80;99.90;;;;;;4937987;28;20422;-81
2023/03/27 12:58:47;;;;;;;5.32;0.43;;;7.50;99.90;;;;;;4917444;29;20089;-81
2023/03/27 13:01:26;;;;;;;3.13;0.73;;;9.00;99.90;;;;;;4917489;29;20482;-81
2023/03/27 13:04:00;;;;;;;5.93;0.50;;;7.70;99.90;;;;;;4918396;29;20133;-81
2023/03/27 13:06:54;;;;;;;5.63;0.65;;;9.60;99.90;;;;;;4933045;29;20427;-81
2023/03/27 13:09:51;;;;;;;7.82;0.88;;;7.90;99.90;;;;;;4892613;29;20059;-83
2023/03/27 13:12:27;;;;;;;4.60;0.70;;;8.10;99.90;;;;;;4908466;29;20062;-83
2023/03/27 13:15:14;;;;;;;6.43;0.73;;;8.10;99.90;;;;;;4914737;29;20110;-83
2023/03/27 13:18:11;;;;;;;8.00;0.57;;;8.10;99.90;;;;;;4899256;29;20060;-83
2023/03/27 13:20:44;;;;;;;8.23;1.23;;;8.10;99.90;;;;;;4894480;29;20134;-82
2023/03/27 13:23:19;;;;;;;4.55;0.55;;;7.40;99.90;;;;;;4922734;29;20567;-83
2023/03/27 13:26:14;;;;;;;7.05;1.20;;;8.20;99.90;;;;;;4898484;29;20056;-82
2023/03/27 13:28:48;;;;;;;10.75;1.02;;;8.20;99.90;;;;;;4932295;29;20056;-81
2023/03/27 13:31:43;;;;;;;6.90;1.13;;;8.80;99.90;;;;;;4907068;29;20091;-82
2023/03/27 13:34:27;;;;;;;4.53;0.73;;;8.10;99.90;;;;;;4921299;29;20059;-81
2023/03/27 13:37:13;;;;;;;8.50;1.30;;;8.30;99.90;;;;;;4931579;29;20101;-81
2023/03/27 13:39:45;;;;;;;9.20;1.65;;;9.50;99.90;;;;;;4881163;29;20090;-82
2023/03/27 13:42:19;;;;;;;5.70;1.52;;;7.20;99.90;;;;;;4923648;29;20413;-82
2023/03/27 13:44:53;;;;;;;5.43;0.95;;;9.90;99.90;;;;;;4914197;29;20055;-82
2023/03/27 13:47:34;;;;;;;5.78;1.05;;;6.80;99.90;;;;;;4897657;29;20063;-82